sensor_id;sensor_type;location;lat;lon;timestamp;pressure;altitude;pressure_sealevel;temperature;humidity
51926;BME280;37952;51.938;15.480;2023-07-30T00:01:29;99060.92;;;18.51;74.03
51926;BME280;37952;51.938;15.480;2023-07-30T00:04:34;99067.70;;;18.48;74.36
51926;BME280;37952;51.938;15.480;2023-07-30T00:07:37;99070.67;;;18.47;74.33
51926;BME280;37952;51.938;15.480;2023-07-30T00:10:40;99070.09;;;18.47;74.19
51926;BME280;37952;51.938;15.480;2023-07-30T00:13:43;99064.76;;;18.47;74.17
51926;BME280;37952;51.938;15.480;2023-07-30T00:16:45;99060.30;;;18.45;74.15
51926;BME280;37952;51.938;15.480;2023-07-30T00:19:48;99052.77;;;18.44;74.38
51926;BME280;37952;51.938;15.480;2023-07-30T00:22:51;99050.06;;;18.44;74.51
51926;BME280;37952;51.938;15.480;2023-07-30T00:25:54;99056.73;;;18.43;74.47
51926;BME280;37952;51.938;15.480;2023-07-30T00:28:57;99059.84;;;18.37;74.45
51926;BME280;37952;51.938;15.480;2023-07-30T00:32:00;99055.48;;;18.31;74.75
51926;BME280;37952;51.938;15.480;2023-07-30T00:35:08;99056.48;;;18.32;74.84
51926;BME280;37952;51.938;15.480;2023-07-30T00:38:11;99065.02;;;18.35;74.89
51926;BME280;37952;51.938;15.480;2023-07-30T00:41:14;99069.23;;;18.38;74.75
51926;BME280;37952;51.938;15.480;2023-07-30T00:44:17;99073.08;;;18.39;74.69
51926;BME280;37952;51.938;15.480;2023-07-30T00:47:20;99066.91;;;18.38;74.82
51926;BME280;37952;51.938;15.480;2023-07-30T00:50:24;99063.87;;;18.38;74.67
51926;BME280;37952;51.938;15.480;2023-07-30T00:53:38;99061.46;;;18.39;74.78
51926;BME280;37952;51.938;15.480;2023-07-30T00:56:49;99058.23;;;18.37;74.96
51926;BME280;37952;51.938;15.480;2023-07-30T00:59:54;99065.89;;;18.36;74.66
51926;BME280;37952;51.938;15.480;2023-07-30T01:02:59;99067.77;;;18.37;74.81
51926;BME280;37952;51.938;15.480;2023-07-30T01:06:02;99072.94;;;18.31;74.83
51926;BME280;37952;51.938;15.480;2023-07-30T01:09:05;99073.74;;;18.24;74.95
51926;BME280;37952;51.938;15.480;2023-07-30T01:12:08;99068.23;;;18.20;75.01
51926;BME280;37952;51.938;15.480;2023-07-30T01:15:11;99071.63;;;18.22;74.91
51926;BME280;37952;51.938;15.480;2023-07-30T01:18:16;99070.08;;;18.26;75.13
51926;BME280;37952;51.938;15.480;2023-07-30T01:21:19;99068.52;;;18.29;75.12
51926;BME280;37952;51.938;15.480;2023-07-30T01:24:22;99072.59;;;18.29;75.06
51926;BME280;37952;51.938;15.480;2023-07-30T01:27:28;99071.16;;;18.32;75.19
51926;BME280;37952;51.938;15.480;2023-07-30T01:30:37;99070.94;;;18.34;74.90
51926;BME280;37952;51.938;15.480;2023-07-30T01:33:47;99072.30;;;18.32;74.83
51926;BME280;37952;51.938;15.480;2023-07-30T01:36:52;99071.28;;;18.28;74.90
51926;BME280;37952;51.938;15.480;2023-07-30T01:39:59;99072.52;;;18.25;75.13
51926;BME280;37952;51.938;15.480;2023-07-30T01:43:02;99077.93;;;18.25;74.97
51926;BME280;37952;51.938;15.480;2023-07-30T01:46:05;99076.05;;;18.22;75.06
51926;BME280;37952;51.938;15.480;2023-07-30T01:49:08;99079.59;;;18.19;74.81
51926;BME280;37952;51.938;15.480;2023-07-30T01:52:11;99080.57;;;18.16;75.10
51926;BME280;37952;51.938;15.480;2023-07-30T01:55:14;99086.02;;;18.17;75.20
51926;BME280;37952;51.938;15.480;2023-07-30T01:58:17;99086.25;;;18.13;75.04
51926;BME280;37952;51.938;15.480;2023-07-30T02:01:19;99084.58;;;18.07;74.97
51926;BME280;37952;51.938;15.480;2023-07-30T02:04:22;99082.91;;;18.02;75.18
51926;BME280;37952;51.938;15.480;2023-07-30T02:07:25;99080.90;;;18.02;75.26
51926;BME280;37952;51.938;15.480;2023-07-30T02:10:28;99083.02;;;18.06;75.40
51926;BME280;37952;51.938;15.480;2023-07-30T02:13:31;99085.38;;;18.07;75.17
51926;BME280;37952;51.938;15.480;2023-07-30T02:16:34;99089.73;;;18.07;75.12
51926;BME280;37952;51.938;15.480;2023-07-30T02:19:37;99094.77;;;18.06;75.18
51926;BME280;37952;51.938;15.480;2023-07-30T02:22:40;99093.43;;;18.07;75.12
51926;BME280;37952;51.938;15.480;2023-07-30T02:25:42;99100.45;;;18.08;75.25
51926;BME280;37952;51.938;15.480;2023-07-30T02:28:46;99097.89;;;18.09;75.07
51926;BME280;37952;51.938;15.480;2023-07-30T02:31:49;99107.11;;;18.08;74.99
51926;BME280;37952;51.938;15.480;2023-07-30T02:34:51;99101.08;;;18.05;75.00
51926;BME280;37952;51.938;15.480;2023-07-30T02:38:08;99101.95;;;18.02;75.06
51926;BME280;37952;51.938;15.480;2023-07-30T02:41:10;99104.89;;;18.00;75.03
51926;BME280;37952;51.938;15.480;2023-07-30T02:44:13;99103.50;;;17.96;74.95
51926;BME280;37952;51.938;15.480;2023-07-30T02:47:16;99107.05;;;17.92;75.11
51926;BME280;37952;51.938;15.480;2023-07-30T02:50:19;99111.42;;;17.91;74.99
51926;BME280;37952;51.938;15.480;2023-07-30T02:53:22;99110.71;;;17.89;75.10
51926;BME280;37952;51.938;15.480;2023-07-30T02:56:25;99113.24;;;17.87;75.36
51926;BME280;37952;51.938;15.480;2023-07-30T02:59:28;99119.20;;;17.83;75.43
51926;BME280;37952;51.938;15.480;2023-07-30T03:02:31;99125.63;;;17.78;75.41
51926;BME280;37952;51.938;15.480;2023-07-30T03:05:34;99125.30;;;17.74;75.24
51926;BME280;37952;51.938;15.480;2023-07-30T03:08:37;99125.14;;;17.72;75.36
51926;BME280;37952;51.938;15.480;2023-07-30T03:11:41;99125.80;;;17.71;75.43
51926;BME280;37952;51.938;15.480;2023-07-30T03:14:44;99137.51;;;17.68;75.39
51926;BME280;37952;51.938;15.480;2023-07-30T03:17:55;99135.70;;;17.63;75.24
51926;BME280;37952;51.938;15.480;2023-07-30T03:20:59;99134.05;;;17.56;75.35
51926;BME280;37952;51.938;15.480;2023-07-30T03:24:03;99134.98;;;17.50;75.72
51926;BME280;37952;51.938;15.480;2023-07-30T03:27:06;99135.58;;;17.51;75.64
51926;BME280;37952;51.938;15.480;2023-07-30T03:30:09;99132.09;;;17.50;75.48
51926;BME280;37952;51.938;15.480;2023-07-30T03:33:12;99130.83;;;17.47;75.43
51926;BME280;37952;51.938;15.480;2023-07-30T03:36:15;99128.43;;;17.44;75.53
51926;BME280;37952;51.938;15.480;2023-07-30T03:39:18;99133.23;;;17.50;75.51
51926;BME280;37952;51.938;15.480;2023-07-30T03:42:21;99143.27;;;17.55;75.57
51926;BME280;37952;51.938;15.480;2023-07-30T03:45:24;99141.38;;;17.55;75.53
51926;BME280;37952;51.938;15.480;2023-07-30T03:48:27;99137.92;;;17.56;75.55
51926;BME280;37952;51.938;15.480;2023-07-30T03:51:29;99137.88;;;17.58;75.56
51926;BME280;37952;51.938;15.480;2023-07-30T03:54:32;99145.80;;;17.56;75.53
51926;BME280;37952;51.938;15.480;2023-07-30T03:57:35;99144.38;;;17.54;75.75
51926;BME280;37952;51.938;15.480;2023-07-30T04:00:38;99146.46;;;17.58;75.66
51926;BME280;37952;51.938;15.480;2023-07-30T04:03:41;99151.61;;;17.59;75.60
51926;BME280;37952;51.938;15.480;2023-07-30T04:06:44;99151.29;;;17.56;75.51
51926;BME280;37952;51.938;15.480;2023-07-30T04:09:47;99156.80;;;17.56;75.59
51926;BME280;37952;51.938;15.480;2023-07-30T04:12:49;99155.78;;;17.58;75.72
51926;BME280;37952;51.938;15.480;2023-07-30T04:15:52;99158.23;;;17.58;75.64
51926;BME280;37952;51.938;15.480;2023-07-30T04:18:55;99160.02;;;17.62;75.53
51926;BME280;37952;51.938;15.480;2023-07-30T04:21:58;99159.40;;;17.64;75.64
51926;BME280;37952;51.938;15.480;2023-07-30T04:25:01;99159.45;;;17.66;75.68
51926;BME280;37952;51.938;15.480;2023-07-30T04:28:04;99160.42;;;17.67;75.56
51926;BME280;37952;51.938;15.480;2023-07-30T04:31:06;99163.24;;;17.67;75.53
51926;BME280;37952;51.938;15.480;2023-07-30T04:34:09;99167.02;;;17.68;75.41
51926;BME280;37952;51.938;15.480;2023-07-30T04:37:12;99171.73;;;17.69;75.48
51926;BME280;37952;51.938;15.480;2023-07-30T04:40:15;99178.55;;;17.73;75.55
51926;BME280;37952;51.938;15.480;2023-07-30T04:43:18;99177.95;;;17.73;75.56
51926;BME280;37952;51.938;15.480;2023-07-30T04:46:21;99178.23;;;17.77;75.51
51926;BME280;37952;51.938;15.480;2023-07-30T04:49:23;99180.85;;;17.80;75.46
51926;BME280;37952;51.938;15.480;2023-07-30T04:52:26;99182.93;;;17.77;75.39
51926;BME280;37952;51.938;15.480;2023-07-30T04:55:29;99181.52;;;17.73;75.48
51926;BME280;37952;51.938;15.480;2023-07-30T04:58:32;99185.69;;;17.74;75.42
51926;BME280;37952;51.938;15.480;2023-07-30T05:01:35;99182.00;;;17.74;75.72
51926;BME280;37952;51.938;15.480;2023-07-30T05:04:41;99183.02;;;17.81;75.52
51926;BME280;37952;51.938;15.480;2023-07-30T05:07:44;99184.58;;;17.87;75.51
51926;BME280;37952;51.938;15.480;2023-07-30T05:10:46;99180.95;;;17.84;75.59
51926;BME280;37952;51.938;15.480;2023-07-30T05:13:49;99184.92;;;17.88;75.71
51926;BME280;37952;51.938;15.480;2023-07-30T05:16:52;99186.48;;;17.90;75.54
51926;BME280;37952;51.938;15.480;2023-07-30T05:19:55;99188.55;;;17.90;75.37
51926;BME280;37952;51.938;15.480;2023-07-30T05:22:58;99189.95;;;17.90;75.47
51926;BME280;37952;51.938;15.480;2023-07-30T05:26:01;99189.37;;;17.89;75.54
51926;BME280;37952;51.938;15.480;2023-07-30T05:29:03;99190.11;;;17.91;75.70
51926;BME280;37952;51.938;15.480;2023-07-30T05:32:11;99195.66;;;17.96;75.61
51926;BME280;37952;51.938;15.480;2023-07-30T05:35:15;99191.93;;;18.01;75.49
51926;BME280;37952;51.938;15.480;2023-07-30T05:38:19;99192.85;;;18.08;75.58
51926;BME280;37952;51.938;15.480;2023-07-30T05:41:22;99194.62;;;18.14;75.52
51926;BME280;37952;51.938;15.480;2023-07-30T05:44:25;99200.02;;;18.22;75.60
51926;BME280;37952;51.938;15.480;2023-07-30T05:47:27;99195.64;;;18.27;75.34
51926;BME280;37952;51.938;15.480;2023-07-30T05:50:30;99193.74;;;18.32;75.10
51926;BME280;37952;51.938;15.480;2023-07-30T05:53:33;99190.71;;;18.37;75.42
51926;BME280;37952;51.938;15.480;2023-07-30T05:56:36;99190.48;;;18.42;75.38
51926;BME280;37952;51.938;15.480;2023-07-30T05:59:39;99187.36;;;18.52;75.30
51926;BME280;37952;51.938;15.480;2023-07-30T06:02:41;99184.17;;;18.55;75.17
51926;BME280;37952;51.938;15.480;2023-07-30T06:05:44;99180.86;;;18.54;75.23
51926;BME280;37952;51.938;15.480;2023-07-30T06:08:47;99179.43;;;18.62;75.23
51926;BME280;37952;51.938;15.480;2023-07-30T06:11:50;99180.50;;;18.54;75.16
51926;BME280;37952;51.938;15.480;2023-07-30T06:14:53;99181.60;;;18.60;75.31
51926;BME280;37952;51.938;15.480;2023-07-30T06:17:56;99182.02;;;18.50;75.39
51926;BME280;37952;51.938;15.480;2023-07-30T06:20:59;99182.52;;;18.45;75.58
51926;BME280;37952;51.938;15.480;2023-07-30T06:24:01;99186.11;;;18.43;75.37
51926;BME280;37952;51.938;15.480;2023-07-30T06:27:05;99183.73;;;18.40;75.48
51926;BME280;37952;51.938;15.480;2023-07-30T06:30:08;99185.71;;;18.47;75.43
51926;BME280;37952;51.938;15.480;2023-07-30T06:33:11;99183.14;;;18.60;75.39
51926;BME280;37952;51.938;15.480;2023-07-30T06:36:14;99185.96;;;18.71;75.30
51926;BME280;37952;51.938;15.480;2023-07-30T06:39:16;99183.99;;;18.81;75.10
51926;BME280;37952;51.938;15.480;2023-07-30T06:42:19;99191.39;;;18.91;74.75
51926;BME280;37952;51.938;15.480;2023-07-30T06:45:22;99195.52;;;18.96;74.69
51926;BME280;37952;51.938;15.480;2023-07-30T06:48:25;99199.05;;;19.01;74.61
51926;BME280;37952;51.938;15.480;2023-07-30T06:51:28;99196.98;;;19.04;74.31
51926;BME280;37952;51.938;15.480;2023-07-30T06:54:32;99203.55;;;19.10;74.13
51926;BME280;37952;51.938;15.480;2023-07-30T06:57:41;99208.77;;;19.14;74.16
51926;BME280;37952;51.938;15.480;2023-07-30T07:00:44;99209.31;;;19.18;73.95
51926;BME280;37952;51.938;15.480;2023-07-30T07:03:47;99207.05;;;19.22;74.09
51926;BME280;37952;51.938;15.480;2023-07-30T07:06:50;99206.64;;;19.32;74.00
51926;BME280;37952;51.938;15.480;2023-07-30T07:09:53;99207.67;;;19.40;74.17
51926;BME280;37952;51.938;15.480;2023-07-30T07:12:55;99211.25;;;19.47;73.87
51926;BME280;37952;51.938;15.480;2023-07-30T07:15:58;99214.81;;;19.56;73.70
51926;BME280;37952;51.938;15.480;2023-07-30T07:19:01;99216.25;;;19.64;73.49
51926;BME280;37952;51.938;15.480;2023-07-30T07:22:04;99219.08;;;19.73;73.17
51926;BME280;37952;51.938;15.480;2023-07-30T07:25:08;99221.07;;;19.83;73.31
51926;BME280;37952;51.938;15.480;2023-07-30T07:28:11;99219.15;;;19.95;72.77
51926;BME280;37952;51.938;15.480;2023-07-30T07:31:13;99218.35;;;20.03;72.34
51926;BME280;37952;51.938;15.480;2023-07-30T07:34:16;99218.04;;;20.08;72.21
51926;BME280;37952;51.938;15.480;2023-07-30T07:37:20;99214.67;;;20.14;72.25
51926;BME280;37952;51.938;15.480;2023-07-30T07:40:23;99217.59;;;20.21;72.06
51926;BME280;37952;51.938;15.480;2023-07-30T07:43:26;99216.55;;;20.30;71.99
51926;BME280;37952;51.938;15.480;2023-07-30T07:46:29;99219.06;;;20.33;71.56
51926;BME280;37952;51.938;15.480;2023-07-30T07:49:31;99220.13;;;20.33;71.48
51926;BME280;37952;51.938;15.480;2023-07-30T07:52:34;99222.89;;;20.35;71.37
51926;BME280;37952;51.938;15.480;2023-07-30T07:55:37;99221.31;;;20.37;71.31
51926;BME280;37952;51.938;15.480;2023-07-30T07:58:40;99215.16;;;20.36;71.08
51926;BME280;37952;51.938;15.480;2023-07-30T08:01:45;99219.19;;;20.38;70.93
51926;BME280;37952;51.938;15.480;2023-07-30T08:04:48;99218.15;;;20.35;70.69
51926;BME280;37952;51.938;15.480;2023-07-30T08:07:51;99221.92;;;20.30;70.83
51926;BME280;37952;51.938;15.480;2023-07-30T08:10:54;99225.45;;;20.29;70.91
51926;BME280;37952;51.938;15.480;2023-07-30T08:13:56;99223.52;;;20.30;70.78
51926;BME280;37952;51.938;15.480;2023-07-30T08:16:59;99227.50;;;20.30;70.82
51926;BME280;37952;51.938;15.480;2023-07-30T08:20:03;99226.58;;;20.33;70.77
51926;BME280;37952;51.938;15.480;2023-07-30T08:23:05;99223.92;;;20.37;70.84
51926;BME280;37952;51.938;15.480;2023-07-30T08:26:08;99222.77;;;20.40;70.58
51926;BME280;37952;51.938;15.480;2023-07-30T08:29:11;99223.40;;;20.41;70.33
51926;BME280;37952;51.938;15.480;2023-07-30T08:32:21;99221.45;;;20.40;70.14
51926;BME280;37952;51.938;15.480;2023-07-30T08:35:24;99220.84;;;20.31;69.37
51926;BME280;37952;51.938;15.480;2023-07-30T08:38:28;99226.18;;;20.31;69.74
51926;BME280;37952;51.938;15.480;2023-07-30T08:41:31;99228.64;;;20.24;68.92
51926;BME280;37952;51.938;15.480;2023-07-30T08:44:34;99224.96;;;20.18;69.26
51926;BME280;37952;51.938;15.480;2023-07-30T08:47:39;99230.19;;;20.21;69.54
51926;BME280;37952;51.938;15.480;2023-07-30T08:50:42;99235.83;;;20.17;68.82
51926;BME280;37952;51.938;15.480;2023-07-30T08:53:46;99231.34;;;20.17;69.12
51926;BME280;37952;51.938;15.480;2023-07-30T08:56:50;99227.47;;;20.18;69.05
51926;BME280;37952;51.938;15.480;2023-07-30T09:00:00;99226.06;;;20.21;69.25
51926;BME280;37952;51.938;15.480;2023-07-30T09:03:04;99227.30;;;20.24;68.93
51926;BME280;37952;51.938;15.480;2023-07-30T09:06:08;99222.40;;;20.25;67.86
51926;BME280;37952;51.938;15.480;2023-07-30T09:09:11;99222.02;;;20.29;68.53
51926;BME280;37952;51.938;15.480;2023-07-30T09:12:15;99214.17;;;20.32;68.63
51926;BME280;37952;51.938;15.480;2023-07-30T09:15:19;99214.70;;;20.35;68.58
51926;BME280;37952;51.938;15.480;2023-07-30T09:18:22;99211.07;;;20.37;67.30
51926;BME280;37952;51.938;15.480;2023-07-30T09:21:32;99208.30;;;20.43;67.90
51926;BME280;37952;51.938;15.480;2023-07-30T09:24:43;99210.77;;;20.48;67.90
51926;BME280;37952;51.938;15.480;2023-07-30T09:27:50;99209.46;;;20.47;67.04
51926;BME280;37952;51.938;15.480;2023-07-30T09:31:00;99206.24;;;20.45;66.68
51926;BME280;37952;51.938;15.480;2023-07-30T09:34:23;99204.81;;;20.50;66.90
51926;BME280;37952;51.938;15.480;2023-07-30T09:37:26;99211.35;;;20.57;67.37
51926;BME280;37952;51.938;15.480;2023-07-30T09:40:34;99212.36;;;20.66;67.21
51926;BME280;37952;51.938;15.480;2023-07-30T09:43:37;99210.08;;;20.73;67.26
51926;BME280;37952;51.938;15.480;2023-07-30T09:46:44;99209.05;;;20.78;67.06
51926;BME280;37952;51.938;15.480;2023-07-30T09:49:47;99210.69;;;20.83;66.96
51926;BME280;37952;51.938;15.480;2023-07-30T09:52:50;99211.69;;;20.88;66.70
51926;BME280;37952;51.938;15.480;2023-07-30T09:55:53;99211.63;;;20.90;66.43
51926;BME280;37952;51.938;15.480;2023-07-30T09:58:55;99210.23;;;20.95;65.90
51926;BME280;37952;51.938;15.480;2023-07-30T10:01:59;99202.86;;;20.95;65.76
51926;BME280;37952;51.938;15.480;2023-07-30T10:05:11;99206.52;;;20.95;65.48
51926;BME280;37952;51.938;15.480;2023-07-30T10:08:21;99200.86;;;21.00;65.78
51926;BME280;37952;51.938;15.480;2023-07-30T10:11:27;99199.18;;;21.06;65.69
51926;BME280;37952;51.938;15.480;2023-07-30T10:14:30;99195.86;;;21.11;65.18
51926;BME280;37952;51.938;15.480;2023-07-30T10:17:33;99193.20;;;21.17;64.78
51926;BME280;37952;51.938;15.480;2023-07-30T10:20:36;99192.60;;;21.22;64.74
51926;BME280;37952;51.938;15.480;2023-07-30T10:23:47;99195.77;;;21.30;64.56
51926;BME280;37952;51.938;15.480;2023-07-30T10:26:53;99190.66;;;21.38;64.72
51926;BME280;37952;51.938;15.480;2023-07-30T10:30:11;99184.89;;;21.44;64.78
51926;BME280;37952;51.938;15.480;2023-07-30T10:33:14;99186.10;;;21.55;64.70
51926;BME280;37952;51.938;15.480;2023-07-30T10:39:48;99187.38;;;21.64;63.50
51926;BME280;37952;51.938;15.480;2023-07-30T10:42:51;99185.14;;;21.66;63.76
51926;BME280;37952;51.938;15.480;2023-07-30T10:45:54;99178.45;;;21.74;64.01
51926;BME280;37952;51.938;15.480;2023-07-30T10:48:59;99178.94;;;21.90;64.11
51926;BME280;37952;51.938;15.480;2023-07-30T10:52:02;99171.22;;;22.06;63.86
51926;BME280;37952;51.938;15.480;2023-07-30T10:55:05;99168.67;;;22.15;63.19
51926;BME280;37952;51.938;15.480;2023-07-30T10:58:08;99169.67;;;22.16;63.20
51926;BME280;37952;51.938;15.480;2023-07-30T11:01:11;99163.52;;;22.16;62.76
51926;BME280;37952;51.938;15.480;2023-07-30T11:04:19;99155.73;;;22.20;63.01
51926;BME280;37952;51.938;15.480;2023-07-30T11:07:22;99149.73;;;22.26;62.79
51926;BME280;37952;51.938;15.480;2023-07-30T11:10:24;99139.98;;;22.29;62.96
51926;BME280;37952;51.938;15.480;2023-07-30T11:13:27;99136.80;;;22.32;62.82
51926;BME280;37952;51.938;15.480;2023-07-30T11:16:31;99139.20;;;22.44;60.95
51926;BME280;37952;51.938;15.480;2023-07-30T11:19:42;99133.94;;;22.55;59.63
51926;BME280;37952;51.938;15.480;2023-07-30T11:22:45;99135.34;;;22.57;58.29
51926;BME280;37952;51.938;15.480;2023-07-30T11:25:49;99141.24;;;22.60;59.71
51926;BME280;37952;51.938;15.480;2023-07-30T11:28:52;99146.92;;;22.65;59.55
51926;BME280;37952;51.938;15.480;2023-07-30T11:31:57;99141.66;;;22.70;59.37
51926;BME280;37952;51.938;15.480;2023-07-30T11:35:07;99137.12;;;22.74;58.19
51926;BME280;37952;51.938;15.480;2023-07-30T11:38:11;99134.30;;;22.80;59.13
51926;BME280;37952;51.938;15.480;2023-07-30T11:41:15;99124.20;;;22.82;58.76
51926;BME280;37952;51.938;15.480;2023-07-30T11:44:39;99118.91;;;22.80;57.98
51926;BME280;37952;51.938;15.480;2023-07-30T11:47:41;99122.84;;;22.80;59.28
51926;BME280;37952;51.938;15.480;2023-07-30T11:50:51;99123.08;;;22.75;59.78
51926;BME280;37952;51.938;15.480;2023-07-30T11:53:59;99122.65;;;22.74;58.43
51926;BME280;37952;51.938;15.480;2023-07-30T11:57:04;99115.00;;;22.84;57.53
51926;BME280;37952;51.938;15.480;2023-07-30T12:00:07;99112.28;;;23.02;58.79
51926;BME280;37952;51.938;15.480;2023-07-30T12:03:13;99112.69;;;23.12;58.32
51926;BME280;37952;51.938;15.480;2023-07-30T12:06:16;99105.80;;;23.17;56.66
51926;BME280;37952;51.938;15.480;2023-07-30T12:09:22;99105.77;;;23.36;56.62
51926;BME280;37952;51.938;15.480;2023-07-30T12:12:26;99106.25;;;23.54;56.18
51926;BME280;37952;51.938;15.480;2023-07-30T12:15:29;99096.73;;;23.61;57.29
51926;BME280;37952;51.938;15.480;2023-07-30T12:18:32;99094.79;;;23.55;57.39
51926;BME280;37952;51.938;15.480;2023-07-30T12:21:35;99089.55;;;23.48;56.95
51926;BME280;37952;51.938;15.480;2023-07-30T12:24:41;99094.39;;;23.51;55.57
51926;BME280;37952;51.938;15.480;2023-07-30T12:27:44;99103.86;;;23.59;55.63
51926;BME280;37952;51.938;15.480;2023-07-30T12:30:46;99093.75;;;23.56;56.18
51926;BME280;37952;51.938;15.480;2023-07-30T12:33:49;99090.91;;;23.47;56.10
51926;BME280;37952;51.938;15.480;2023-07-30T12:36:52;99090.10;;;23.37;56.41
51926;BME280;37952;51.938;15.480;2023-07-30T12:39:55;99082.91;;;23.32;55.13
51926;BME280;37952;51.938;15.480;2023-07-30T12:42:58;99073.48;;;23.32;54.94
51926;BME280;37952;51.938;15.480;2023-07-30T12:46:00;99069.80;;;23.39;54.44
51926;BME280;37952;51.938;15.480;2023-07-30T12:49:04;99074.74;;;23.61;55.03
51926;BME280;37952;51.938;15.480;2023-07-30T12:52:07;99079.45;;;23.82;53.56
51926;BME280;37952;51.938;15.480;2023-07-30T12:55:10;99083.39;;;23.94;54.97
51926;BME280;37952;51.938;15.480;2023-07-30T12:58:13;99092.42;;;23.74;53.96
51926;BME280;37952;51.938;15.480;2023-07-30T13:01:16;99106.77;;;23.54;53.99
51926;BME280;37952;51.938;15.480;2023-07-30T13:04:20;99119.27;;;23.15;52.24
51926;BME280;37952;51.938;15.480;2023-07-30T13:07:43;99119.08;;;22.92;53.02
51926;BME280;37952;51.938;15.480;2023-07-30T13:10:46;99127.40;;;22.69;53.92
51926;BME280;37952;51.938;15.480;2023-07-30T13:13:48;99126.77;;;22.44;55.76
51926;BME280;37952;51.938;15.480;2023-07-30T13:16:51;99121.17;;;22.31;56.77
51926;BME280;37952;51.938;15.480;2023-07-30T13:19:54;99117.48;;;22.24;57.95
51926;BME280;37952;51.938;15.480;2023-07-30T13:22:56;99117.02;;;22.21;58.27
51926;BME280;37952;51.938;15.480;2023-07-30T13:26:00;99118.80;;;22.24;58.64
51926;BME280;37952;51.938;15.480;2023-07-30T13:29:03;99117.17;;;22.36;59.24
51926;BME280;37952;51.938;15.480;2023-07-30T13:32:12;99119.23;;;22.50;59.39
51926;BME280;37952;51.938;15.480;2023-07-30T13:35:15;99118.13;;;22.63;59.54
51926;BME280;37952;51.938;15.480;2023-07-30T13:38:18;99120.63;;;22.72;59.56
51926;BME280;37952;51.938;15.480;2023-07-30T13:41:24;99123.32;;;22.82;59.18
51926;BME280;37952;51.938;15.480;2023-07-30T13:44:26;99128.27;;;22.95;59.19
51926;BME280;37952;51.938;15.480;2023-07-30T13:47:29;99128.85;;;23.08;58.92
51926;BME280;37952;51.938;15.480;2023-07-30T13:50:32;99133.02;;;23.16;58.74
51926;BME280;37952;51.938;15.480;2023-07-30T13:53:35;99133.67;;;23.25;58.93
51926;BME280;37952;51.938;15.480;2023-07-30T13:56:41;99131.55;;;23.40;58.88
51926;BME280;37952;51.938;15.480;2023-07-30T13:59:43;99124.88;;;23.50;58.67
51926;BME280;37952;51.938;15.480;2023-07-30T14:02:46;99118.56;;;23.63;58.56
51926;BME280;37952;51.938;15.480;2023-07-30T14:05:50;99121.82;;;23.78;57.82
51926;BME280;37952;51.938;15.480;2023-07-30T14:08:53;99118.55;;;23.93;56.87
51926;BME280;37952;51.938;15.480;2023-07-30T14:11:55;99109.47;;;24.20;57.77
51926;BME280;37952;51.938;15.480;2023-07-30T14:14:58;99105.52;;;24.41;56.81
51926;BME280;37952;51.938;15.480;2023-07-30T14:18:01;99101.05;;;24.49;55.39
51926;BME280;37952;51.938;15.480;2023-07-30T14:21:04;99102.04;;;24.57;54.93
51926;BME280;37952;51.938;15.480;2023-07-30T14:24:06;99108.68;;;24.43;53.42
51926;BME280;37952;51.938;15.480;2023-07-30T14:27:09;99111.40;;;24.29;54.85
51926;BME280;37952;51.938;15.480;2023-07-30T14:30:12;99110.58;;;24.31;54.80
51926;BME280;37952;51.938;15.480;2023-07-30T14:33:15;99108.08;;;24.46;53.70
51926;BME280;37952;51.938;15.480;2023-07-30T14:36:18;99102.95;;;24.73;54.56
51926;BME280;37952;51.938;15.480;2023-07-30T14:39:21;99098.08;;;24.96;53.60
51926;BME280;37952;51.938;15.480;2023-07-30T14:42:23;99100.02;;;24.93;52.47
51926;BME280;37952;51.938;15.480;2023-07-30T14:45:26;99101.98;;;24.86;51.38
51926;BME280;37952;51.938;15.480;2023-07-30T14:48:29;99094.34;;;25.04;52.29
51926;BME280;37952;51.938;15.480;2023-07-30T14:51:31;99102.92;;;25.10;49.78
51926;BME280;37952;51.938;15.480;2023-07-30T14:54:34;99101.63;;;24.95;49.37
51926;BME280;37952;51.938;15.480;2023-07-30T14:57:37;99101.73;;;24.97;50.31
51926;BME280;37952;51.938;15.480;2023-07-30T15:00:40;99104.89;;;25.18;50.75
51926;BME280;37952;51.938;15.480;2023-07-30T15:03:42;99112.19;;;25.30;47.23
51926;BME280;37952;51.938;15.480;2023-07-30T15:06:45;99106.11;;;25.30;46.05
51926;BME280;37952;51.938;15.480;2023-07-30T15:09:49;99102.32;;;25.22;45.25
51926;BME280;37952;51.938;15.480;2023-07-30T15:12:54;99104.38;;;25.08;44.58
51926;BME280;37952;51.938;15.480;2023-07-30T15:15:57;99111.15;;;24.92;44.44
51926;BME280;37952;51.938;15.480;2023-07-30T15:18:59;99112.55;;;24.90;44.56
51926;BME280;37952;51.938;15.480;2023-07-30T15:22:03;99113.50;;;24.95;44.98
51926;BME280;37952;51.938;15.480;2023-07-30T15:25:06;99118.55;;;25.03;46.31
51926;BME280;37952;51.938;15.480;2023-07-30T15:28:09;99123.56;;;25.10;42.82
51926;BME280;37952;51.938;15.480;2023-07-30T15:31:12;99123.61;;;25.16;41.67
51926;BME280;37952;51.938;15.480;2023-07-30T15:34:16;99117.32;;;25.14;42.17
51926;BME280;37952;51.938;15.480;2023-07-30T15:37:19;99113.88;;;25.09;43.00
51926;BME280;37952;51.938;15.480;2023-07-30T15:40:21;99113.30;;;25.19;43.53
51926;BME280;37952;51.938;15.480;2023-07-30T15:43:24;99113.72;;;25.32;44.05
51926;BME280;37952;51.938;15.480;2023-07-30T15:46:27;99122.05;;;25.30;42.35
51926;BME280;37952;51.938;15.480;2023-07-30T15:49:30;99126.11;;;25.14;41.44
51926;BME280;37952;51.938;15.480;2023-07-30T15:52:33;99121.03;;;24.95;41.52
51926;BME280;37952;51.938;15.480;2023-07-30T15:55:36;99124.86;;;24.88;41.70
51926;BME280;37952;51.938;15.480;2023-07-30T15:58:39;99136.30;;;24.76;41.53
51926;BME280;37952;51.938;15.480;2023-07-30T16:01:41;99137.30;;;24.57;41.11
51926;BME280;37952;51.938;15.480;2023-07-30T16:04:44;99131.07;;;24.55;41.71